Drakesboro, Kentucky
Current Conditions -  °F | °C
As of 7:35 PM on Sunday 23 Nov 2014 (Local Time) from K2I0 Reporting Station
Overcast Overcast  
Wind Chill: 61°   Ceiling: 2800
Heat Index: 61°   Visibility: 10mi
Dew Point: 60°   Wind: 13mph
Humidity: 97%   Direction: 200°SSW
Pressure: 29.3"   Gusts: NA
Location:  37.22°N, 87.05°W
Report Text: K2I0 240135Z AUTO 20011KT 10SM SCT013 BKN028 OVC060 16/16 A2930 RMK AO2 T01600155
Loading
Personal Weather Stations






























Interactive Weather Map New forecast layout! Learn more

10-Day Weather Forecast

Advertisements
Track Severe Weather on mobile